createdAt,value
2022-10-19T00:01:25.357Z,14.58
2022-10-19T00:04:29.010Z,14.55
2022-10-19T00:07:31.910Z,14.46
2022-10-19T00:10:34.907Z,14.40
2022-10-19T00:13:39.225Z,14.38
2022-10-19T00:16:43.768Z,14.35
2022-10-19T00:19:46.497Z,14.27
2022-10-19T00:22:50.691Z,14.22
2022-10-19T00:25:57.122Z,14.15
2022-10-19T00:29:02.001Z,14.06
2022-10-19T00:32:04.764Z,14.06
2022-10-19T00:35:08.778Z,14.03
2022-10-19T00:38:11.419Z,13.89
2022-10-19T00:41:14.587Z,13.92
2022-10-19T00:44:54.602Z,13.94
2022-10-19T00:47:58.642Z,13.93
2022-10-19T00:51:01.552Z,14.09
2022-10-19T00:54:06.312Z,14.29
2022-10-19T00:57:09.959Z,14.46
2022-10-19T01:00:13.161Z,14.63
2022-10-19T01:03:17.169Z,14.72
2022-10-19T01:06:19.921Z,14.84
2022-10-19T01:09:22.756Z,14.92
2022-10-19T01:12:54.155Z,15.08
2022-10-19T01:16:02.014Z,15.19
2022-10-19T01:19:16.700Z,15.24
2022-10-19T01:22:31.869Z,15.31
2022-10-19T01:25:44.202Z,15.38
2022-10-19T01:28:52.312Z,15.42
2022-10-19T01:32:01.091Z,15.46
2022-10-19T01:35:08.201Z,15.49
2022-10-19T01:38:17.143Z,15.55
2022-10-19T01:41:24.152Z,15.60
2022-10-19T01:44:29.561Z,15.62
2022-10-19T01:47:36.180Z,15.61
2022-10-19T01:50:42.721Z,15.67
2022-10-19T01:53:48.837Z,15.75
2022-10-19T01:56:52.673Z,15.81
2022-10-19T01:59:55.696Z,15.82
2022-10-19T02:03:00.524Z,15.86
2022-10-19T02:06:05.404Z,15.87
2022-10-19T02:09:08.560Z,15.90
2022-10-19T02:12:12.297Z,15.95
2022-10-19T02:15:19.004Z,15.95
2022-10-19T02:18:26.731Z,15.99
2022-10-19T02:21:29.799Z,16.02
2022-10-19T02:24:32.745Z,16.00
2022-10-19T02:27:35.911Z,16.06
2022-10-19T02:30:39.032Z,16.07
2022-10-19T02:33:43.158Z,16.08
2022-10-19T02:36:46.138Z,16.13
2022-10-19T02:39:48.951Z,16.14
2022-10-19T02:42:54.313Z,16.16
2022-10-19T02:46:00.981Z,16.14
2022-10-19T02:49:05.593Z,16.14
2022-10-19T02:52:10.288Z,16.20
2022-10-19T02:55:13.066Z,16.24
2022-10-19T02:58:15.828Z,16.21
2022-10-19T03:01:18.560Z,16.21
2022-10-19T03:04:22.717Z,16.17
2022-10-19T03:07:25.636Z,16.15
2022-10-19T03:10:28.760Z,16.16
2022-10-19T03:13:31.496Z,16.15
2022-10-19T03:16:34.255Z,16.14
2022-10-19T03:19:38.627Z,16.13
2022-10-19T03:22:41.399Z,16.13
2022-10-19T03:25:44.196Z,16.16
2022-10-19T03:28:47.117Z,16.16
2022-10-19T03:31:49.967Z,16.17
2022-10-19T03:34:53.963Z,16.21
2022-10-19T03:37:56.742Z,16.23
2022-10-19T03:40:59.555Z,16.23
2022-10-19T03:44:02.553Z,16.24
2022-10-19T03:47:05.284Z,16.22
2022-10-19T03:50:11.365Z,16.20
2022-10-19T03:53:14.199Z,16.16
2022-10-19T03:56:18.295Z,16.14
2022-10-19T03:59:21.808Z,16.10
2022-10-19T04:02:24.338Z,16.07
2022-10-19T04:05:28.444Z,15.98
2022-10-19T04:08:31.499Z,15.94
2022-10-19T04:11:35.254Z,15.92
2022-10-19T04:14:52.500Z,15.94
2022-10-19T04:17:59.235Z,15.96
2022-10-19T04:21:06.167Z,15.97
2022-10-19T04:24:12.954Z,15.96
2022-10-19T04:27:16.019Z,15.86
2022-10-19T04:30:18.866Z,15.90
2022-10-19T04:33:21.758Z,15.86
2022-10-19T04:36:26.022Z,15.71
2022-10-19T04:39:28.878Z,15.53
2022-10-19T04:42:31.734Z,15.38
2022-10-19T04:45:36.363Z,15.38
2022-10-19T04:48:40.291Z,15.33
2022-10-19T04:51:44.404Z,15.25
2022-10-19T04:54:47.491Z,15.17
2022-10-19T04:57:50.380Z,15.15
2022-10-19T05:00:53.394Z,15.15
2022-10-19T05:07:06.249Z,15.12
2022-10-19T05:10:10.608Z,15.11
2022-10-19T05:13:13.282Z,15.15
2022-10-19T05:16:17.816Z,15.18
2022-10-19T05:19:20.585Z,15.29
2022-10-19T05:22:24.699Z,15.38
2022-10-19T05:25:27.466Z,15.45
2022-10-19T05:28:30.672Z,15.53
2022-10-19T05:31:34.929Z,15.54
2022-10-19T05:34:37.885Z,15.57
2022-10-19T05:37:42.035Z,15.61
2022-10-19T05:40:52.888Z,15.67
2022-10-19T05:43:58.467Z,15.60
2022-10-19T05:47:01.157Z,15.62
2022-10-19T05:50:03.886Z,15.70
2022-10-19T05:53:07.945Z,15.77
2022-10-19T05:56:14.682Z,15.79
2022-10-19T05:59:19.009Z,15.82
2022-10-19T06:02:21.601Z,15.83
2022-10-19T06:05:24.263Z,15.91
2022-10-19T06:08:28.139Z,15.96
2022-10-19T06:11:33.900Z,16.06
2022-10-19T06:14:36.598Z,16.13
2022-10-19T06:17:39.362Z,16.08
2022-10-19T06:20:43.115Z,16.12
2022-10-19T06:23:51.557Z,16.17
2022-10-19T06:26:54.301Z,16.25
2022-10-19T06:29:57.009Z,16.31
2022-10-19T06:32:59.826Z,16.35
2022-10-19T06:36:07.224Z,16.40
2022-10-19T06:39:11.266Z,16.34
2022-10-19T06:42:13.885Z,16.43
2022-10-19T06:45:16.607Z,16.50
2022-10-19T06:48:19.168Z,16.51
2022-10-19T06:51:22.489Z,16.69
2022-10-19T06:54:27.092Z,16.88
2022-10-19T06:57:29.903Z,16.98
2022-10-19T07:00:32.549Z,17.04
2022-10-19T07:03:35.411Z,17.04
2022-10-19T07:06:38.424Z,16.98
2022-10-19T07:09:42.716Z,17.10
2022-10-19T07:12:45.481Z,17.17
2022-10-19T07:15:48.348Z,17.27
2022-10-19T07:18:52.760Z,17.41
2022-10-19T07:21:55.428Z,17.63
2022-10-19T07:24:59.655Z,17.96
2022-10-19T07:28:02.292Z,18.19
2022-10-19T07:31:10.483Z,18.28
2022-10-19T07:34:14.726Z,18.40
2022-10-19T07:37:17.512Z,18.49
2022-10-19T07:40:21.503Z,18.62
2022-10-19T07:43:24.508Z,18.79
2022-10-19T07:46:29.610Z,18.95
2022-10-19T07:49:32.244Z,19.12
2022-10-19T07:52:36.904Z,19.13
2022-10-19T07:55:41.485Z,19.00
2022-10-19T07:58:44.543Z,19.15
2022-10-19T08:01:48.765Z,19.26
2022-10-19T08:05:02.815Z,19.60
2022-10-19T08:08:07.926Z,19.76
2022-10-19T08:11:13.371Z,19.64
2022-10-19T08:14:15.913Z,19.87
2022-10-19T08:17:18.526Z,19.44
2022-10-19T08:20:21.488Z,19.76
2022-10-19T08:23:27.045Z,19.81
2022-10-19T08:26:32.615Z,19.83
2022-10-19T08:29:35.276Z,19.61
2022-10-19T08:32:37.899Z,19.47
2022-10-19T08:35:40.558Z,19.37
2022-10-19T08:38:45.078Z,19.35
2022-10-19T08:41:58.863Z,19.79
2022-10-19T08:45:27.143Z,20.14
2022-10-19T08:48:32.845Z,19.92
2022-10-19T08:51:39.208Z,19.75
2022-10-19T08:54:44.562Z,19.74
2022-10-19T08:57:54.646Z,19.44
2022-10-19T09:01:04.797Z,19.24
2022-10-19T09:04:11.055Z,19.59
2022-10-19T09:07:26.001Z,19.53
2022-10-19T09:10:30.863Z,19.49
2022-10-19T09:13:47.017Z,19.51
2022-10-19T09:17:04.617Z,19.48
2022-10-19T09:20:19.309Z,19.60
2022-10-19T09:23:26.173Z,19.84
2022-10-19T09:26:30.338Z,19.85
2022-10-19T09:29:38.473Z,19.74
2022-10-19T09:32:41.508Z,19.33
2022-10-19T09:35:45.602Z,19.09
2022-10-19T09:38:49.231Z,19.67
2022-10-19T09:41:56.579Z,20.18
2022-10-19T09:45:02.564Z,20.19
2022-10-19T09:48:15.323Z,20.17
2022-10-19T09:51:18.641Z,20.29
2022-10-19T09:54:26.696Z,20.32
2022-10-19T09:57:29.321Z,19.92
2022-10-19T10:00:39.145Z,19.34
2022-10-19T10:03:43.618Z,19.13
2022-10-19T10:06:49.406Z,19.28
2022-10-19T10:09:53.595Z,19.18
2022-10-19T10:12:57.372Z,19.31
2022-10-19T10:16:02.965Z,19.39
2022-10-19T10:19:08.005Z,19.42
2022-10-19T10:22:25.914Z,19.60
2022-10-19T10:25:31.503Z,19.49
2022-10-19T10:28:34.160Z,19.67
2022-10-19T10:31:38.893Z,19.71
2022-10-19T10:34:51.244Z,19.78
2022-10-19T10:38:06.111Z,19.73
2022-10-19T10:41:13.892Z,19.68
2022-10-19T10:44:20.883Z,20.14
2022-10-19T10:47:27.041Z,20.58
2022-10-19T10:50:35.082Z,21.17
2022-10-19T10:53:39.965Z,21.42
2022-10-19T10:56:43.599Z,21.49
2022-10-19T10:59:55.480Z,21.80
2022-10-19T11:03:02.492Z,21.86
2022-10-19T11:06:05.194Z,21.34
2022-10-19T11:09:17.934Z,21.58
2022-10-19T11:12:32.791Z,22.08
2022-10-19T11:15:40.753Z,21.99
2022-10-19T11:18:48.627Z,21.81
2022-10-19T11:21:57.529Z,22.02
2022-10-19T11:25:20.615Z,21.91
2022-10-19T11:28:36.858Z,21.87
2022-10-19T11:31:45.891Z,21.70
2022-10-19T11:35:02.084Z,21.24
2022-10-19T11:38:30.115Z,21.48
2022-10-19T11:41:39.256Z,21.99
2022-10-19T11:44:51.831Z,22.07
2022-10-19T11:48:04.012Z,22.66
2022-10-19T11:51:28.530Z,22.90
2022-10-19T11:54:40.188Z,22.45
2022-10-19T11:57:49.443Z,21.96
2022-10-19T12:00:58.448Z,22.09
2022-10-19T12:04:08.617Z,22.27
2022-10-19T12:07:41.038Z,22.75
2022-10-19T12:10:49.964Z,22.09
2022-10-19T12:13:54.899Z,22.04
2022-10-19T12:17:00.189Z,22.44
2022-10-19T12:20:06.113Z,22.87
2022-10-19T12:23:24.587Z,22.36
2022-10-19T12:26:31.301Z,22.10
2022-10-19T12:29:37.537Z,21.84
2022-10-19T12:32:52.001Z,21.89
2022-10-19T12:36:03.135Z,22.04
2022-10-19T12:39:13.783Z,22.69
2022-10-19T12:42:23.281Z,22.38
2022-10-19T12:45:30.339Z,25.28
2022-10-19T12:48:36.306Z,30.17
2022-10-19T12:51:46.080Z,33.78
2022-10-19T12:54:48.679Z,34.08
2022-10-19T12:58:01.900Z,35.43
2022-10-19T13:01:05.270Z,35.23
2022-10-19T13:04:09.579Z,34.79
2022-10-19T13:07:18.128Z,35.52
2022-10-19T13:10:22.791Z,36.72
2022-10-19T13:14:06.100Z,36.51
2022-10-19T13:17:10.009Z,32.91
2022-10-19T13:20:51.702Z,32.05
2022-10-19T13:24:21.039Z,36.35
2022-10-19T13:27:39.799Z,36.91
2022-10-19T13:31:12.901Z,34.34
2022-10-19T13:34:17.450Z,30.31
2022-10-19T13:37:20.580Z,28.53
2022-10-19T13:40:24.733Z,28.87
2022-10-19T13:43:30.518Z,32.82
2022-10-19T13:46:55.386Z,35.97
2022-10-19T13:50:26.800Z,36.38
2022-10-19T13:53:38.986Z,36.60
2022-10-19T13:57:05.260Z,37.83
2022-10-19T14:00:15.465Z,38.63
2022-10-19T14:03:29.322Z,37.14
2022-10-19T14:06:34.974Z,37.10
2022-10-19T14:10:00.690Z,36.82
2022-10-19T14:13:04.711Z,35.47
2022-10-19T14:16:10.246Z,33.53
2022-10-19T14:19:15.825Z,27.50
2022-10-19T14:22:21.321Z,25.19
2022-10-19T14:25:26.937Z,23.41
2022-10-19T14:28:30.331Z,23.23
2022-10-19T14:31:35.715Z,22.78
2022-10-19T14:34:42.237Z,23.13
2022-10-19T14:37:45.056Z,23.44
2022-10-19T14:40:47.713Z,25.11
2022-10-19T14:43:50.305Z,25.59
2022-10-19T14:46:53.004Z,26.95
2022-10-19T14:49:57.550Z,26.53
2022-10-19T14:53:05.026Z,26.95
2022-10-19T14:56:09.942Z,27.56
2022-10-19T14:59:22.392Z,29.63
2022-10-19T15:02:26.893Z,32.10
2022-10-19T15:05:34.831Z,30.10
2022-10-19T15:08:42.475Z,29.18
2022-10-19T15:11:49.782Z,27.10
2022-10-19T15:14:52.638Z,25.68
2022-10-19T15:17:57.043Z,24.66
2022-10-19T15:21:12.964Z,23.37
2022-10-19T15:24:25.708Z,22.67
2022-10-19T15:27:33.989Z,21.89
2022-10-19T15:30:37.132Z,20.89
2022-10-19T15:33:41.469Z,20.45
2022-10-19T15:36:54.778Z,20.19
2022-10-19T15:39:57.740Z,20.21
2022-10-19T15:43:01.034Z,20.07
2022-10-19T15:46:03.913Z,19.97
2022-10-19T15:49:45.677Z,19.67
2022-10-19T15:52:50.089Z,19.27
2022-10-19T15:55:52.938Z,19.02
2022-10-19T15:58:56.949Z,18.79
2022-10-19T16:01:59.724Z,18.63
2022-10-19T16:05:02.612Z,18.43
2022-10-19T16:08:10.102Z,18.14
2022-10-19T16:11:15.673Z,17.82
2022-10-19T16:14:18.104Z,17.49
2022-10-19T16:17:21.099Z,17.32
2022-10-19T16:20:24.433Z,17.19
2022-10-19T16:23:30.779Z,16.90
2022-10-19T16:26:33.552Z,16.74
2022-10-19T16:29:36.403Z,16.57
2022-10-19T16:32:43.504Z,16.43
2022-10-19T16:35:46.581Z,16.36
2022-10-19T16:38:50.801Z,16.26
2022-10-19T16:41:53.531Z,16.06
2022-10-19T16:44:56.456Z,15.97
2022-10-19T16:47:59.554Z,15.85
2022-10-19T16:51:20.529Z,15.75
2022-10-19T16:54:25.813Z,15.68
2022-10-19T16:57:28.529Z,15.62
2022-10-19T17:00:31.296Z,15.52
2022-10-19T17:03:34.144Z,15.38
2022-10-19T17:06:36.793Z,15.38
2022-10-19T17:09:42.447Z,15.38
2022-10-19T17:12:45.846Z,15.44
2022-10-19T17:15:48.522Z,15.34
2022-10-19T17:18:53.457Z,15.30
2022-10-19T17:21:57.619Z,15.26
2022-10-19T17:25:01.741Z,15.16
2022-10-19T17:28:04.449Z,15.13
2022-10-19T17:31:08.960Z,15.22
2022-10-19T17:34:11.633Z,15.19
2022-10-19T17:37:14.425Z,15.15
2022-10-19T17:40:18.546Z,15.22
2022-10-19T17:43:21.226Z,15.11
2022-10-19T17:46:26.104Z,14.94
2022-10-19T17:49:29.712Z,14.93
2022-10-19T17:52:33.572Z,14.89
2022-10-19T17:55:38.956Z,14.72
2022-10-19T17:58:42.026Z,14.69
2022-10-19T18:01:44.649Z,14.74
2022-10-19T18:04:47.416Z,14.82
2022-10-19T18:07:51.290Z,14.80
2022-10-19T18:11:02.801Z,14.84
2022-10-19T18:14:07.858Z,14.91
2022-10-19T18:17:10.661Z,14.76
2022-10-19T18:20:13.440Z,14.62
2022-10-19T18:23:16.064Z,14.48
2022-10-19T18:26:22.205Z,14.37
2022-10-19T18:29:26.789Z,14.26
2022-10-19T18:32:29.497Z,14.30
2022-10-19T18:35:36.438Z,14.20
2022-10-19T18:38:39.963Z,14.08
2022-10-19T18:41:43.771Z,13.97
2022-10-19T18:44:47.311Z,13.86
2022-10-19T18:47:49.819Z,13.72
2022-10-19T18:50:52.678Z,13.73
2022-10-19T18:53:56.075Z,13.74
2022-10-19T18:57:00.215Z,13.67
2022-10-19T19:00:03.138Z,13.59
2022-10-19T19:03:05.856Z,13.48
2022-10-19T19:06:10.800Z,13.51
2022-10-19T19:09:13.933Z,13.47
2022-10-19T19:12:18.051Z,13.43
2022-10-19T19:15:20.915Z,13.44
2022-10-19T19:18:23.845Z,13.61
2022-10-19T19:21:27.758Z,13.78
2022-10-19T19:24:32.260Z,13.91
2022-10-19T19:30:47.007Z,14.20
2022-10-19T19:33:50.690Z,14.26
2022-10-19T19:36:54.110Z,14.30
2022-10-19T19:39:56.779Z,14.32
2022-10-19T19:43:02.781Z,14.33
2022-10-19T19:49:35.642Z,14.32
2022-10-19T19:52:40.539Z,14.34
2022-10-19T19:55:43.386Z,14.40
2022-10-19T19:58:48.177Z,14.44
2022-10-19T20:01:51.530Z,14.39
2022-10-19T20:04:54.396Z,14.34
2022-10-19T20:07:57.307Z,14.18
2022-10-19T20:11:03.261Z,13.94
2022-10-19T20:14:07.221Z,13.83
2022-10-19T20:17:10.008Z,13.74
2022-10-19T20:20:14.111Z,13.59
2022-10-19T20:23:16.814Z,13.50
2022-10-19T20:26:21.367Z,13.37
2022-10-19T20:29:25.453Z,13.29
2022-10-19T20:32:29.498Z,13.19
2022-10-19T20:35:32.355Z,13.19
2022-10-19T20:38:35.559Z,13.12
2022-10-19T20:41:38.222Z,13.07
2022-10-19T20:44:42.195Z,13.00
2022-10-19T20:47:44.833Z,12.96
2022-10-19T20:50:47.507Z,12.98
2022-10-19T20:53:51.595Z,12.92
2022-10-19T20:56:54.562Z,12.91
2022-10-19T20:59:58.571Z,12.89
2022-10-19T21:03:01.547Z,12.85
2022-10-19T21:06:05.724Z,12.82
2022-10-19T21:09:09.217Z,12.77
2022-10-19T21:12:11.817Z,12.69
2022-10-19T21:15:16.032Z,12.71
2022-10-19T21:18:18.719Z,12.71
2022-10-19T21:21:22.810Z,12.75
2022-10-19T21:24:27.560Z,12.67
2022-10-19T21:27:30.347Z,12.59
2022-10-19T21:30:37.285Z,12.56
2022-10-19T21:33:39.924Z,12.57
2022-10-19T21:36:42.974Z,12.52
2022-10-19T21:39:45.619Z,12.44
2022-10-19T21:42:48.220Z,12.40
2022-10-19T21:45:52.224Z,12.37
2022-10-19T21:48:55.867Z,12.35
2022-10-19T21:51:58.683Z,12.29
2022-10-19T21:55:01.250Z,12.30
2022-10-19T21:58:04.442Z,12.27
2022-10-19T22:01:09.252Z,12.32
2022-10-19T22:04:14.266Z,12.27
2022-10-19T22:07:16.986Z,12.28
2022-10-19T22:10:19.748Z,12.22
2022-10-19T22:13:22.450Z,12.22
2022-10-19T22:16:26.864Z,12.21
2022-10-19T22:19:29.630Z,12.18
2022-10-19T22:22:32.750Z,12.18
2022-10-19T22:25:36.156Z,12.27
2022-10-19T22:28:39.046Z,12.32
2022-10-19T22:31:43.251Z,12.35
2022-10-19T22:34:45.885Z,12.28
2022-10-19T22:37:48.586Z,12.28
2022-10-19T22:40:51.389Z,12.30
2022-10-19T22:43:54.259Z,12.27
2022-10-19T22:46:58.712Z,12.24
2022-10-19T22:50:01.904Z,12.10
2022-10-19T22:53:04.526Z,11.95
2022-10-19T22:56:08.575Z,11.87
2022-10-19T22:59:11.015Z,11.85
2022-10-19T23:02:14.915Z,11.87
2022-10-19T23:05:17.563Z,11.89
2022-10-19T23:08:20.161Z,11.84
2022-10-19T23:11:23.300Z,11.80
2022-10-19T23:14:26.005Z,11.75
2022-10-19T23:17:30.111Z,11.76
2022-10-19T23:20:32.792Z,11.70
2022-10-19T23:23:36.935Z,11.71
2022-10-19T23:26:39.522Z,11.69
2022-10-19T23:29:42.321Z,11.65
2022-10-19T23:32:46.332Z,11.61
2022-10-19T23:35:49.044Z,11.57
2022-10-19T23:38:53.009Z,11.55
2022-10-19T23:41:55.732Z,11.59
2022-10-19T23:44:58.303Z,11.59
2022-10-19T23:48:02.661Z,11.51
2022-10-19T23:51:07.313Z,11.48
2022-10-19T23:54:10.128Z,11.48
2022-10-19T23:57:12.766Z,11.50
